sensor_id;sensor_type;location;lat;lon;timestamp;P1;durP1;ratioP1;P2;durP2;ratioP2
41705;SDS011;27385;51.096;17.190;2022-12-01T00:02:11;78.30;;;31.90;;
41705;SDS011;27385;51.096;17.190;2022-12-01T00:04:43;68.50;;;29.30;;
41705;SDS011;27385;51.096;17.190;2022-12-01T00:07:16;75.40;;;32.00;;
41705;SDS011;27385;51.096;17.190;2022-12-01T00:09:47;77.20;;;30.70;;
41705;SDS011;27385;51.096;17.190;2022-12-01T00:12:37;71.30;;;28.80;;
41705;SDS011;27385;51.096;17.190;2022-12-01T00:15:10;74.90;;;32.40;;
41705;SDS011;27385;51.096;17.190;2022-12-01T00:17:42;81.90;;;33.80;;
41705;SDS011;27385;51.096;17.190;2022-12-01T00:20:15;73.90;;;30.90;;
41705;SDS011;27385;51.096;17.190;2022-12-01T00:22:47;67.80;;;30.10;;
41705;SDS011;27385;51.096;17.190;2022-12-01T00:25:20;72.30;;;30.70;;
41705;SDS011;27385;51.096;17.190;2022-12-01T00:27:51;80.90;;;32.40;;
41705;SDS011;27385;51.096;17.190;2022-12-01T00:30:24;72.40;;;30.50;;
41705;SDS011;27385;51.096;17.190;2022-12-01T00:32:56;73.50;;;30.80;;
41705;SDS011;27385;51.096;17.190;2022-12-01T00:35:27;75.70;;;31.10;;
41705;SDS011;27385;51.096;17.190;2022-12-01T00:37:58;65.90;;;29.50;;
41705;SDS011;27385;51.096;17.190;2022-12-01T00:40:33;73.80;;;29.50;;
41705;SDS011;27385;51.096;17.190;2022-12-01T00:43:04;62.30;;;26.90;;
41705;SDS011;27385;51.096;17.190;2022-12-01T00:45:35;65.20;;;26.20;;
41705;SDS011;27385;51.096;17.190;2022-12-01T00:48:06;61.60;;;25.30;;
41705;SDS011;27385;51.096;17.190;2022-12-01T00:50:38;59.70;;;25.00;;
41705;SDS011;27385;51.096;17.190;2022-12-01T00:53:13;69.10;;;28.00;;
41705;SDS011;27385;51.096;17.190;2022-12-01T00:55:45;60.10;;;25.80;;
41705;SDS011;27385;51.096;17.190;2022-12-01T00:58:17;62.00;;;25.90;;
41705;SDS011;27385;51.096;17.190;2022-12-01T01:00:50;62.30;;;24.70;;
41705;SDS011;27385;51.096;17.190;2022-12-01T01:03:27;64.70;;;25.60;;
41705;SDS011;27385;51.096;17.190;2022-12-01T01:06:03;67.70;;;26.70;;
41705;SDS011;27385;51.096;17.190;2022-12-01T01:08:37;60.00;;;25.80;;
41705;SDS011;27385;51.096;17.190;2022-12-01T01:11:09;55.90;;;23.10;;
41705;SDS011;27385;51.096;17.190;2022-12-01T01:13:40;58.20;;;23.50;;
41705;SDS011;27385;51.096;17.190;2022-12-01T01:16:12;55.90;;;23.30;;
41705;SDS011;27385;51.096;17.190;2022-12-01T01:18:45;57.90;;;23.10;;
41705;SDS011;27385;51.096;17.190;2022-12-01T01:21:17;57.00;;;24.80;;
41705;SDS011;27385;51.096;17.190;2022-12-01T01:23:50;55.00;;;24.40;;
41705;SDS011;27385;51.096;17.190;2022-12-01T01:26:23;57.80;;;24.10;;
41705;SDS011;27385;51.096;17.190;2022-12-01T01:28:58;57.00;;;24.00;;
41705;SDS011;27385;51.096;17.190;2022-12-01T01:31:31;58.20;;;23.60;;
41705;SDS011;27385;51.096;17.190;2022-12-01T01:34:03;53.30;;;23.00;;
41705;SDS011;27385;51.096;17.190;2022-12-01T01:36:35;52.50;;;22.50;;
41705;SDS011;27385;51.096;17.190;2022-12-01T01:39:06;57.00;;;23.60;;
41705;SDS011;27385;51.096;17.190;2022-12-01T01:41:38;55.80;;;23.30;;
41705;SDS011;27385;51.096;17.190;2022-12-01T01:47:19;57.90;;;24.10;;
41705;SDS011;27385;51.096;17.190;2022-12-01T01:49:54;54.50;;;24.70;;
41705;SDS011;27385;51.096;17.190;2022-12-01T01:52:27;51.60;;;21.10;;
41705;SDS011;27385;51.096;17.190;2022-12-01T01:54:59;57.60;;;22.30;;
41705;SDS011;27385;51.096;17.190;2022-12-01T01:57:31;55.30;;;22.80;;
41705;SDS011;27385;51.096;17.190;2022-12-01T02:00:05;59.60;;;23.20;;
41705;SDS011;27385;51.096;17.190;2022-12-01T02:02:40;56.80;;;23.30;;
41705;SDS011;27385;51.096;17.190;2022-12-01T02:05:15;58.20;;;24.60;;
41705;SDS011;27385;51.096;17.190;2022-12-01T02:07:50;59.40;;;23.60;;
41705;SDS011;27385;51.096;17.190;2022-12-01T02:10:27;61.20;;;24.30;;
41705;SDS011;27385;51.096;17.190;2022-12-01T02:13:04;57.40;;;23.10;;
41705;SDS011;27385;51.096;17.190;2022-12-01T02:15:45;59.40;;;22.40;;
41705;SDS011;27385;51.096;17.190;2022-12-01T02:18:25;55.80;;;24.00;;
41705;SDS011;27385;51.096;17.190;2022-12-01T02:21:14;57.50;;;24.00;;
41705;SDS011;27385;51.096;17.190;2022-12-01T02:27:03;60.10;;;23.90;;
41705;SDS011;27385;51.096;17.190;2022-12-01T02:29:52;62.60;;;24.20;;
41705;SDS011;27385;51.096;17.190;2022-12-01T02:32:46;57.00;;;24.20;;
41705;SDS011;27385;51.096;17.190;2022-12-01T02:35:27;54.10;;;24.60;;
41705;SDS011;27385;51.096;17.190;2022-12-01T02:38:08;56.70;;;24.40;;
41705;SDS011;27385;51.096;17.190;2022-12-01T02:40:45;67.40;;;25.90;;
41705;SDS011;27385;51.096;17.190;2022-12-01T02:43:24;55.60;;;23.30;;
41705;SDS011;27385;51.096;17.190;2022-12-01T02:46:01;55.00;;;23.30;;
41705;SDS011;27385;51.096;17.190;2022-12-01T02:48:41;58.40;;;23.70;;
41705;SDS011;27385;51.096;17.190;2022-12-01T02:51:17;57.10;;;23.70;;
41705;SDS011;27385;51.096;17.190;2022-12-01T02:53:53;53.70;;;23.00;;
41705;SDS011;27385;51.096;17.190;2022-12-01T02:56:25;54.90;;;22.80;;
41705;SDS011;27385;51.096;17.190;2022-12-01T02:58:56;60.20;;;25.20;;
41705;SDS011;27385;51.096;17.190;2022-12-01T03:01:38;65.90;;;26.60;;
41705;SDS011;27385;51.096;17.190;2022-12-01T03:04:29;53.60;;;23.70;;
41705;SDS011;27385;51.096;17.190;2022-12-01T03:07:15;60.80;;;23.30;;
41705;SDS011;27385;51.096;17.190;2022-12-01T03:10:07;60.70;;;23.60;;
41705;SDS011;27385;51.096;17.190;2022-12-01T03:12:48;57.50;;;24.10;;
41705;SDS011;27385;51.096;17.190;2022-12-01T03:15:29;61.10;;;25.30;;
41705;SDS011;27385;51.096;17.190;2022-12-01T03:18:08;59.10;;;24.80;;
41705;SDS011;27385;51.096;17.190;2022-12-01T03:20:45;61.20;;;24.00;;
41705;SDS011;27385;51.096;17.190;2022-12-01T03:23:26;55.00;;;24.00;;
41705;SDS011;27385;51.096;17.190;2022-12-01T03:26:03;60.30;;;26.50;;
41705;SDS011;27385;51.096;17.190;2022-12-01T03:28:38;62.60;;;26.20;;
41705;SDS011;27385;51.096;17.190;2022-12-01T03:31:15;64.40;;;25.60;;
41705;SDS011;27385;51.096;17.190;2022-12-01T03:33:50;58.00;;;23.70;;
41705;SDS011;27385;51.096;17.190;2022-12-01T03:36:28;58.00;;;25.30;;
41705;SDS011;27385;51.096;17.190;2022-12-01T03:39:04;64.30;;;26.00;;
41705;SDS011;27385;51.096;17.190;2022-12-01T03:41:42;58.10;;;23.80;;
41705;SDS011;27385;51.096;17.190;2022-12-01T03:44:21;55.20;;;23.20;;
41705;SDS011;27385;51.096;17.190;2022-12-01T03:47:01;59.50;;;24.40;;
41705;SDS011;27385;51.096;17.190;2022-12-01T03:49:37;61.70;;;24.90;;
41705;SDS011;27385;51.096;17.190;2022-12-01T03:52:13;61.30;;;25.00;;
41705;SDS011;27385;51.096;17.190;2022-12-01T03:54:50;62.20;;;25.40;;
41705;SDS011;27385;51.096;17.190;2022-12-01T03:57:28;59.50;;;24.50;;
41705;SDS011;27385;51.096;17.190;2022-12-01T04:00:05;62.10;;;25.30;;
41705;SDS011;27385;51.096;17.190;2022-12-01T04:02:39;59.40;;;25.20;;
41705;SDS011;27385;51.096;17.190;2022-12-01T04:05:11;61.40;;;25.90;;
41705;SDS011;27385;51.096;17.190;2022-12-01T04:07:43;65.00;;;27.00;;
41705;SDS011;27385;51.096;17.190;2022-12-01T04:10:14;58.10;;;23.70;;
41705;SDS011;27385;51.096;17.190;2022-12-01T04:12:46;70.60;;;27.40;;
41705;SDS011;27385;51.096;17.190;2022-12-01T04:15:17;72.00;;;26.10;;
41705;SDS011;27385;51.096;17.190;2022-12-01T04:17:50;59.90;;;23.30;;
41705;SDS011;27385;51.096;17.190;2022-12-01T04:20:21;64.10;;;24.80;;
41705;SDS011;27385;51.096;17.190;2022-12-01T04:22:53;68.70;;;28.20;;
41705;SDS011;27385;51.096;17.190;2022-12-01T04:25:24;65.40;;;26.10;;
41705;SDS011;27385;51.096;17.190;2022-12-01T04:27:55;70.80;;;28.40;;
41705;SDS011;27385;51.096;17.190;2022-12-01T04:30:27;66.80;;;28.50;;
41705;SDS011;27385;51.096;17.190;2022-12-01T04:32:58;64.40;;;27.00;;
41705;SDS011;27385;51.096;17.190;2022-12-01T04:35:30;66.60;;;28.60;;
41705;SDS011;27385;51.096;17.190;2022-12-01T04:38:01;66.80;;;27.10;;
41705;SDS011;27385;51.096;17.190;2022-12-01T04:40:33;67.80;;;28.40;;
41705;SDS011;27385;51.096;17.190;2022-12-01T04:43:06;65.50;;;28.70;;
41705;SDS011;27385;51.096;17.190;2022-12-01T04:45:38;76.50;;;32.30;;
41705;SDS011;27385;51.096;17.190;2022-12-01T04:48:09;72.50;;;32.40;;
41705;SDS011;27385;51.096;17.190;2022-12-01T04:50:41;72.40;;;30.90;;
41705;SDS011;27385;51.096;17.190;2022-12-01T04:53:12;73.20;;;32.70;;
41705;SDS011;27385;51.096;17.190;2022-12-01T04:55:43;72.90;;;31.70;;
41705;SDS011;27385;51.096;17.190;2022-12-01T04:58:19;71.00;;;29.80;;
41705;SDS011;27385;51.096;17.190;2022-12-01T05:00:51;69.40;;;28.60;;
41705;SDS011;27385;51.096;17.190;2022-12-01T05:03:22;72.90;;;29.90;;
41705;SDS011;27385;51.096;17.190;2022-12-01T05:06:00;69.70;;;29.70;;
41705;SDS011;27385;51.096;17.190;2022-12-01T05:08:36;73.30;;;32.00;;
41705;SDS011;27385;51.096;17.190;2022-12-01T05:11:10;78.50;;;31.90;;
41705;SDS011;27385;51.096;17.190;2022-12-01T05:13:43;65.80;;;27.20;;
41705;SDS011;27385;51.096;17.190;2022-12-01T05:16:16;73.30;;;29.90;;
41705;SDS011;27385;51.096;17.190;2022-12-01T05:18:49;74.00;;;29.60;;
41705;SDS011;27385;51.096;17.190;2022-12-01T05:21:43;68.20;;;31.70;;
41705;SDS011;27385;51.096;17.190;2022-12-01T05:24:17;74.10;;;28.70;;
41705;SDS011;27385;51.096;17.190;2022-12-01T05:26:49;67.00;;;29.30;;
41705;SDS011;27385;51.096;17.190;2022-12-01T05:29:20;68.80;;;28.70;;
41705;SDS011;27385;51.096;17.190;2022-12-01T05:31:52;71.30;;;31.20;;
41705;SDS011;27385;51.096;17.190;2022-12-01T05:34:23;69.80;;;28.70;;
41705;SDS011;27385;51.096;17.190;2022-12-01T05:36:59;71.00;;;29.50;;
41705;SDS011;27385;51.096;17.190;2022-12-01T05:39:48;77.90;;;31.90;;
41705;SDS011;27385;51.096;17.190;2022-12-01T05:42:31;80.20;;;32.60;;
41705;SDS011;27385;51.096;17.190;2022-12-01T05:45:04;71.10;;;31.10;;
41705;SDS011;27385;51.096;17.190;2022-12-01T05:47:37;64.80;;;27.90;;
41705;SDS011;27385;51.096;17.190;2022-12-01T05:50:09;69.40;;;30.10;;
41705;SDS011;27385;51.096;17.190;2022-12-01T05:52:41;63.90;;;29.30;;
41705;SDS011;27385;51.096;17.190;2022-12-01T05:55:12;71.20;;;29.30;;
41705;SDS011;27385;51.096;17.190;2022-12-01T05:57:44;65.30;;;28.60;;
41705;SDS011;27385;51.096;17.190;2022-12-01T06:00:18;70.60;;;29.00;;
41705;SDS011;27385;51.096;17.190;2022-12-01T06:02:49;72.00;;;30.40;;
41705;SDS011;27385;51.096;17.190;2022-12-01T06:05:22;70.40;;;30.30;;
41705;SDS011;27385;51.096;17.190;2022-12-01T06:07:53;70.20;;;29.10;;
41705;SDS011;27385;51.096;17.190;2022-12-01T06:10:25;69.00;;;29.00;;
41705;SDS011;27385;51.096;17.190;2022-12-01T06:12:56;69.50;;;28.80;;
41705;SDS011;27385;51.096;17.190;2022-12-01T06:15:27;71.90;;;28.50;;
41705;SDS011;27385;51.096;17.190;2022-12-01T06:18:00;64.20;;;26.20;;
41705;SDS011;27385;51.096;17.190;2022-12-01T06:20:34;74.40;;;29.40;;
41705;SDS011;27385;51.096;17.190;2022-12-01T06:23:05;71.50;;;29.60;;
41705;SDS011;27385;51.096;17.190;2022-12-01T06:25:37;68.30;;;29.60;;
41705;SDS011;27385;51.096;17.190;2022-12-01T06:28:08;71.90;;;28.40;;
41705;SDS011;27385;51.096;17.190;2022-12-01T06:30:40;73.90;;;30.90;;
41705;SDS011;27385;51.096;17.190;2022-12-01T06:33:11;73.60;;;30.20;;
41705;SDS011;27385;51.096;17.190;2022-12-01T06:35:43;74.60;;;29.90;;
41705;SDS011;27385;51.096;17.190;2022-12-01T06:38:14;80.80;;;31.90;;
41705;SDS011;27385;51.096;17.190;2022-12-01T06:40:46;69.30;;;30.10;;
41705;SDS011;27385;51.096;17.190;2022-12-01T06:43:17;73.00;;;30.40;;
41705;SDS011;27385;51.096;17.190;2022-12-01T06:45:48;75.70;;;31.50;;
41705;SDS011;27385;51.096;17.190;2022-12-01T06:48:20;71.80;;;27.30;;
41705;SDS011;27385;51.096;17.190;2022-12-01T06:50:52;73.50;;;31.00;;
41705;SDS011;27385;51.096;17.190;2022-12-01T06:53:27;70.90;;;28.70;;
41705;SDS011;27385;51.096;17.190;2022-12-01T06:55:59;78.10;;;30.90;;
41705;SDS011;27385;51.096;17.190;2022-12-01T06:58:32;72.00;;;28.50;;
41705;SDS011;27385;51.096;17.190;2022-12-01T07:01:07;72.60;;;29.60;;
41705;SDS011;27385;51.096;17.190;2022-12-01T07:03:40;75.20;;;30.50;;
41705;SDS011;27385;51.096;17.190;2022-12-01T07:06:15;70.90;;;30.30;;
41705;SDS011;27385;51.096;17.190;2022-12-01T07:08:46;72.40;;;28.30;;
41705;SDS011;27385;51.096;17.190;2022-12-01T07:11:18;71.00;;;31.00;;
41705;SDS011;27385;51.096;17.190;2022-12-01T07:13:53;72.90;;;29.40;;
41705;SDS011;27385;51.096;17.190;2022-12-01T07:16:25;64.10;;;26.20;;
41705;SDS011;27385;51.096;17.190;2022-12-01T07:18:56;67.00;;;27.40;;
41705;SDS011;27385;51.096;17.190;2022-12-01T07:21:28;70.00;;;29.80;;
41705;SDS011;27385;51.096;17.190;2022-12-01T07:23:59;67.20;;;28.50;;
41705;SDS011;27385;51.096;17.190;2022-12-01T07:26:30;67.50;;;27.90;;
41705;SDS011;27385;51.096;17.190;2022-12-01T07:29:02;72.90;;;29.50;;
41705;SDS011;27385;51.096;17.190;2022-12-01T07:31:34;71.70;;;31.30;;
41705;SDS011;27385;51.096;17.190;2022-12-01T07:34:08;77.10;;;31.80;;
41705;SDS011;27385;51.096;17.190;2022-12-01T07:36:41;78.00;;;31.60;;
41705;SDS011;27385;51.096;17.190;2022-12-01T07:39:12;84.10;;;30.50;;
41705;SDS011;27385;51.096;17.190;2022-12-01T07:41:43;71.20;;;28.60;;
41705;SDS011;27385;51.096;17.190;2022-12-01T07:44:15;73.10;;;30.00;;
41705;SDS011;27385;51.096;17.190;2022-12-01T07:46:46;65.80;;;27.50;;
41705;SDS011;27385;51.096;17.190;2022-12-01T07:49:18;67.80;;;29.50;;
41705;SDS011;27385;51.096;17.190;2022-12-01T07:51:49;75.20;;;29.30;;
41705;SDS011;27385;51.096;17.190;2022-12-01T07:54:21;65.90;;;29.50;;
41705;SDS011;27385;51.096;17.190;2022-12-01T07:56:53;71.40;;;31.80;;
41705;SDS011;27385;51.096;17.190;2022-12-01T07:59:25;72.60;;;30.20;;
41705;SDS011;27385;51.096;17.190;2022-12-01T08:01:58;74.70;;;30.00;;
41705;SDS011;27385;51.096;17.190;2022-12-01T08:04:29;72.80;;;29.30;;
41705;SDS011;27385;51.096;17.190;2022-12-01T08:07:00;71.90;;;29.80;;
41705;SDS011;27385;51.096;17.190;2022-12-01T08:09:32;80.00;;;33.10;;
41705;SDS011;27385;51.096;17.190;2022-12-01T08:12:04;68.80;;;27.80;;
41705;SDS011;27385;51.096;17.190;2022-12-01T08:14:37;73.10;;;30.70;;
41705;SDS011;27385;51.096;17.190;2022-12-01T08:17:08;73.80;;;28.40;;
41705;SDS011;27385;51.096;17.190;2022-12-01T08:19:40;73.00;;;28.90;;
41705;SDS011;27385;51.096;17.190;2022-12-01T08:22:11;70.20;;;28.30;;
41705;SDS011;27385;51.096;17.190;2022-12-01T08:24:42;63.30;;;24.10;;
41705;SDS011;27385;51.096;17.190;2022-12-01T08:27:14;69.20;;;29.00;;
41705;SDS011;27385;51.096;17.190;2022-12-01T08:29:46;68.00;;;28.80;;
41705;SDS011;27385;51.096;17.190;2022-12-01T08:32:17;74.00;;;28.70;;
41705;SDS011;27385;51.096;17.190;2022-12-01T08:34:49;67.60;;;28.70;;
41705;SDS011;27385;51.096;17.190;2022-12-01T08:37:21;77.60;;;30.00;;
41705;SDS011;27385;51.096;17.190;2022-12-01T08:39:53;67.20;;;28.80;;
41705;SDS011;27385;51.096;17.190;2022-12-01T08:42:24;72.60;;;31.50;;
41705;SDS011;27385;51.096;17.190;2022-12-01T08:44:55;73.90;;;32.70;;
41705;SDS011;27385;51.096;17.190;2022-12-01T08:47:27;68.80;;;30.10;;
41705;SDS011;27385;51.096;17.190;2022-12-01T08:49:59;77.90;;;33.30;;
41705;SDS011;27385;51.096;17.190;2022-12-01T08:52:32;84.70;;;35.20;;
41705;SDS011;27385;51.096;17.190;2022-12-01T08:55:04;79.10;;;37.00;;
41705;SDS011;27385;51.096;17.190;2022-12-01T08:57:37;81.30;;;33.10;;
41705;SDS011;27385;51.096;17.190;2022-12-01T09:00:10;65.70;;;29.30;;
41705;SDS011;27385;51.096;17.190;2022-12-01T09:02:43;71.80;;;33.20;;
41705;SDS011;27385;51.096;17.190;2022-12-01T09:05:14;77.90;;;31.90;;
41705;SDS011;27385;51.096;17.190;2022-12-01T09:07:46;73.60;;;32.10;;
41705;SDS011;27385;51.096;17.190;2022-12-01T09:10:37;68.80;;;30.70;;
41705;SDS011;27385;51.096;17.190;2022-12-01T09:13:09;70.90;;;30.50;;
41705;SDS011;27385;51.096;17.190;2022-12-01T09:15:40;70.70;;;30.80;;
41705;SDS011;27385;51.096;17.190;2022-12-01T09:18:12;76.30;;;31.80;;
41705;SDS011;27385;51.096;17.190;2022-12-01T09:20:43;70.60;;;31.60;;
41705;SDS011;27385;51.096;17.190;2022-12-01T09:23:15;69.90;;;30.80;;
41705;SDS011;27385;51.096;17.190;2022-12-01T09:25:46;70.00;;;31.30;;
41705;SDS011;27385;51.096;17.190;2022-12-01T09:28:18;79.00;;;34.50;;
41705;SDS011;27385;51.096;17.190;2022-12-01T09:30:51;76.50;;;33.20;;
41705;SDS011;27385;51.096;17.190;2022-12-01T09:33:22;69.80;;;31.10;;
41705;SDS011;27385;51.096;17.190;2022-12-01T09:35:56;71.20;;;31.40;;
41705;SDS011;27385;51.096;17.190;2022-12-01T09:41:33;73.30;;;31.50;;
41705;SDS011;27385;51.096;17.190;2022-12-01T09:44:06;70.10;;;31.00;;
41705;SDS011;27385;51.096;17.190;2022-12-01T09:46:48;65.90;;;28.00;;
41705;SDS011;27385;51.096;17.190;2022-12-01T09:49:25;62.60;;;26.00;;
41705;SDS011;27385;51.096;17.190;2022-12-01T09:52:08;60.90;;;27.10;;
41705;SDS011;27385;51.096;17.190;2022-12-01T09:54:42;57.00;;;24.10;;
41705;SDS011;27385;51.096;17.190;2022-12-01T09:57:16;62.30;;;26.70;;
41705;SDS011;27385;51.096;17.190;2022-12-01T09:59:55;61.10;;;25.20;;
41705;SDS011;27385;51.096;17.190;2022-12-01T10:02:32;56.10;;;25.30;;
41705;SDS011;27385;51.096;17.190;2022-12-01T10:05:15;59.90;;;25.90;;
41705;SDS011;27385;51.096;17.190;2022-12-01T10:07:51;56.40;;;23.20;;
41705;SDS011;27385;51.096;17.190;2022-12-01T10:10:29;59.30;;;24.60;;
41705;SDS011;27385;51.096;17.190;2022-12-01T10:13:05;53.00;;;24.20;;
41705;SDS011;27385;51.096;17.190;2022-12-01T10:15:47;57.50;;;24.90;;
41705;SDS011;27385;51.096;17.190;2022-12-01T10:18:30;63.30;;;26.20;;
41705;SDS011;27385;51.096;17.190;2022-12-01T10:21:11;56.20;;;26.00;;
41705;SDS011;27385;51.096;17.190;2022-12-01T10:23:53;57.50;;;26.10;;
41705;SDS011;27385;51.096;17.190;2022-12-01T10:26:37;53.90;;;23.50;;
41705;SDS011;27385;51.096;17.190;2022-12-01T10:29:23;53.60;;;24.60;;
41705;SDS011;27385;51.096;17.190;2022-12-01T10:32:05;62.10;;;28.70;;
41705;SDS011;27385;51.096;17.190;2022-12-01T10:34:45;57.20;;;25.60;;
41705;SDS011;27385;51.096;17.190;2022-12-01T10:37:19;58.90;;;26.70;;
41705;SDS011;27385;51.096;17.190;2022-12-01T10:39:53;57.90;;;26.00;;
41705;SDS011;27385;51.096;17.190;2022-12-01T10:42:27;58.10;;;26.60;;
41705;SDS011;27385;51.096;17.190;2022-12-01T10:45:01;80.60;;;42.20;;
41705;SDS011;27385;51.096;17.190;2022-12-01T10:47:34;77.60;;;39.20;;
41705;SDS011;27385;51.096;17.190;2022-12-01T10:50:08;62.30;;;29.60;;
41705;SDS011;27385;51.096;17.190;2022-12-01T10:52:56;52.70;;;24.60;;
41705;SDS011;27385;51.096;17.190;2022-12-01T10:55:29;55.10;;;27.40;;
41705;SDS011;27385;51.096;17.190;2022-12-01T10:58:04;54.00;;;24.70;;
41705;SDS011;27385;51.096;17.190;2022-12-01T11:00:42;52.60;;;23.30;;
41705;SDS011;27385;51.096;17.190;2022-12-01T11:03:24;48.20;;;22.70;;
41705;SDS011;27385;51.096;17.190;2022-12-01T11:05:59;57.20;;;24.70;;
41705;SDS011;27385;51.096;17.190;2022-12-01T11:08:35;50.40;;;23.30;;
41705;SDS011;27385;51.096;17.190;2022-12-01T11:11:22;47.20;;;21.80;;
41705;SDS011;27385;51.096;17.190;2022-12-01T11:13:58;59.20;;;25.50;;
41705;SDS011;27385;51.096;17.190;2022-12-01T11:16:38;62.00;;;27.60;;
41705;SDS011;27385;51.096;17.190;2022-12-01T11:19:18;167.20;;;70.90;;
41705;SDS011;27385;51.096;17.190;2022-12-01T11:22:00;184.30;;;75.50;;
41705;SDS011;27385;51.096;17.190;2022-12-01T11:24:56;185.00;;;75.20;;
41705;SDS011;27385;51.096;17.190;2022-12-01T11:27:32;142.70;;;57.40;;
41705;SDS011;27385;51.096;17.190;2022-12-01T11:30:16;67.60;;;28.00;;
41705;SDS011;27385;51.096;17.190;2022-12-01T11:32:52;57.80;;;26.00;;
41705;SDS011;27385;51.096;17.190;2022-12-01T11:35:26;58.30;;;24.30;;
41705;SDS011;27385;51.096;17.190;2022-12-01T11:38:01;70.90;;;29.90;;
41705;SDS011;27385;51.096;17.190;2022-12-01T11:40:37;56.40;;;25.90;;
41705;SDS011;27385;51.096;17.190;2022-12-01T11:43:21;70.00;;;30.90;;
41705;SDS011;27385;51.096;17.190;2022-12-01T11:45:56;74.00;;;35.80;;
41705;SDS011;27385;51.096;17.190;2022-12-01T11:48:31;57.70;;;26.10;;
41705;SDS011;27385;51.096;17.190;2022-12-01T11:51:05;58.50;;;28.70;;
41705;SDS011;27385;51.096;17.190;2022-12-01T11:53:40;107.30;;;46.00;;
41705;SDS011;27385;51.096;17.190;2022-12-01T11:56:14;133.30;;;54.60;;
41705;SDS011;27385;51.096;17.190;2022-12-01T11:58:50;109.70;;;44.90;;
41705;SDS011;27385;51.096;17.190;2022-12-01T12:01:30;130.50;;;50.60;;
41705;SDS011;27385;51.096;17.190;2022-12-01T12:04:11;178.20;;;64.90;;
41705;SDS011;27385;51.096;17.190;2022-12-01T12:06:54;171.50;;;67.10;;
41705;SDS011;27385;51.096;17.190;2022-12-01T12:09:37;133.50;;;52.40;;
41705;SDS011;27385;51.096;17.190;2022-12-01T12:12:19;103.30;;;43.90;;
41705;SDS011;27385;51.096;17.190;2022-12-01T12:15:04;127.30;;;52.60;;
41705;SDS011;27385;51.096;17.190;2022-12-01T12:17:52;126.10;;;54.20;;
41705;SDS011;27385;51.096;17.190;2022-12-01T12:20:44;94.50;;;39.00;;
41705;SDS011;27385;51.096;17.190;2022-12-01T12:23:43;66.10;;;28.80;;
41705;SDS011;27385;51.096;17.190;2022-12-01T12:26:28;60.90;;;25.40;;
41705;SDS011;27385;51.096;17.190;2022-12-01T12:29:10;61.20;;;27.30;;
41705;SDS011;27385;51.096;17.190;2022-12-01T12:31:53;68.10;;;28.00;;
41705;SDS011;27385;51.096;17.190;2022-12-01T12:34:34;85.50;;;35.10;;
41705;SDS011;27385;51.096;17.190;2022-12-01T12:37:18;65.20;;;26.10;;
41705;SDS011;27385;51.096;17.190;2022-12-01T12:43:05;56.10;;;22.90;;
41705;SDS011;27385;51.096;17.190;2022-12-01T12:45:55;75.90;;;31.50;;
41705;SDS011;27385;51.096;17.190;2022-12-01T12:51:16;65.40;;;25.90;;
41705;SDS011;27385;51.096;17.190;2022-12-01T12:53:55;63.10;;;25.90;;
41705;SDS011;27385;51.096;17.190;2022-12-01T12:56:35;77.20;;;31.40;;
41705;SDS011;27385;51.096;17.190;2022-12-01T12:59:10;75.30;;;31.70;;
41705;SDS011;27385;51.096;17.190;2022-12-01T13:01:52;88.20;;;34.40;;
41705;SDS011;27385;51.096;17.190;2022-12-01T13:04:31;122.40;;;48.30;;
41705;SDS011;27385;51.096;17.190;2022-12-01T13:07:12;152.70;;;64.10;;
41705;SDS011;27385;51.096;17.190;2022-12-01T13:09:55;128.60;;;53.40;;
41705;SDS011;27385;51.096;17.190;2022-12-01T13:12:33;79.80;;;33.10;;
41705;SDS011;27385;51.096;17.190;2022-12-01T13:15:12;77.90;;;29.10;;
41705;SDS011;27385;51.096;17.190;2022-12-01T13:17:47;59.00;;;26.10;;
41705;SDS011;27385;51.096;17.190;2022-12-01T13:20:22;97.60;;;35.50;;
41705;SDS011;27385;51.096;17.190;2022-12-01T13:22:56;97.00;;;38.80;;
41705;SDS011;27385;51.096;17.190;2022-12-01T13:25:31;89.20;;;33.70;;
41705;SDS011;27385;51.096;17.190;2022-12-01T13:28:11;84.60;;;30.90;;
41705;SDS011;27385;51.096;17.190;2022-12-01T13:30:57;66.90;;;24.30;;
41705;SDS011;27385;51.096;17.190;2022-12-01T13:33:32;60.10;;;25.00;;
41705;SDS011;27385;51.096;17.190;2022-12-01T13:36:08;81.30;;;30.80;;
41705;SDS011;27385;51.096;17.190;2022-12-01T13:38:55;73.40;;;28.60;;
41705;SDS011;27385;51.096;17.190;2022-12-01T13:41:31;72.70;;;25.80;;
41705;SDS011;27385;51.096;17.190;2022-12-01T13:44:06;60.20;;;25.50;;
41705;SDS011;27385;51.096;17.190;2022-12-01T13:46:50;62.80;;;28.30;;
41705;SDS011;27385;51.096;17.190;2022-12-01T13:49:34;96.30;;;43.50;;
41705;SDS011;27385;51.096;17.190;2022-12-01T14:00:52;88.10;;;36.70;;
41705;SDS011;27385;51.096;17.190;2022-12-01T14:03:44;93.20;;;35.70;;
41705;SDS011;27385;51.096;17.190;2022-12-01T14:06:25;99.70;;;38.70;;
41705;SDS011;27385;51.096;17.190;2022-12-01T14:09:10;67.80;;;27.10;;
41705;SDS011;27385;51.096;17.190;2022-12-01T14:11:55;57.30;;;23.30;;
41705;SDS011;27385;51.096;17.190;2022-12-01T14:14:31;58.60;;;23.80;;
41705;SDS011;27385;51.096;17.190;2022-12-01T14:17:11;68.10;;;28.60;;
41705;SDS011;27385;51.096;17.190;2022-12-01T14:20:01;60.70;;;25.70;;
41705;SDS011;27385;51.096;17.190;2022-12-01T14:22:36;81.90;;;31.10;;
41705;SDS011;27385;51.096;17.190;2022-12-01T14:25:22;76.30;;;31.00;;
41705;SDS011;27385;51.096;17.190;2022-12-01T14:27:58;84.60;;;33.60;;
41705;SDS011;27385;51.096;17.190;2022-12-01T14:33:47;97.70;;;36.90;;
41705;SDS011;27385;51.096;17.190;2022-12-01T14:36:24;85.80;;;35.20;;
41705;SDS011;27385;51.096;17.190;2022-12-01T14:39:02;114.20;;;44.00;;
41705;SDS011;27385;51.096;17.190;2022-12-01T14:41:42;150.60;;;62.70;;
41705;SDS011;27385;51.096;17.190;2022-12-01T14:44:20;190.80;;;79.80;;
41705;SDS011;27385;51.096;17.190;2022-12-01T14:46:57;151.60;;;66.40;;
41705;SDS011;27385;51.096;17.190;2022-12-01T14:49:38;156.50;;;62.90;;
41705;SDS011;27385;51.096;17.190;2022-12-01T14:52:13;138.20;;;53.20;;
41705;SDS011;27385;51.096;17.190;2022-12-01T14:54:51;148.30;;;59.50;;
41705;SDS011;27385;51.096;17.190;2022-12-01T14:57:27;160.00;;;65.80;;
41705;SDS011;27385;51.096;17.190;2022-12-01T15:00:05;132.40;;;57.00;;
41705;SDS011;27385;51.096;17.190;2022-12-01T15:02:41;200.20;;;92.80;;
41705;SDS011;27385;51.096;17.190;2022-12-01T15:05:20;218.10;;;98.50;;
41705;SDS011;27385;51.096;17.190;2022-12-01T15:07:55;184.00;;;86.00;;
41705;SDS011;27385;51.096;17.190;2022-12-01T15:10:29;160.00;;;72.70;;
41705;SDS011;27385;51.096;17.190;2022-12-01T15:13:12;127.00;;;54.50;;
41705;SDS011;27385;51.096;17.190;2022-12-01T15:15:51;125.10;;;56.30;;
41705;SDS011;27385;51.096;17.190;2022-12-01T15:18:26;117.40;;;56.70;;
41705;SDS011;27385;51.096;17.190;2022-12-01T15:21:08;104.50;;;48.30;;
41705;SDS011;27385;51.096;17.190;2022-12-01T15:23:52;103.60;;;48.60;;
41705;SDS011;27385;51.096;17.190;2022-12-01T15:26:25;73.60;;;38.70;;